Time;durP1;ratioP1;P1;durP2;ratioP2;P2;SDS_P1;SDS_P2;PMS_P1;PMS_P2;Temp;Humidity;BMP_temperature;BMP_pressure;BME280_temperature;BME280_humidity;BME280_pressure;Samples;Min_cycle;Max_cycle;Signal;HPM_P1;HPM_P2
2023/12/26 00:00:19;;;;;;;0.57;0.20;;;;;;;;;;5056670;28;41380;-73
2023/12/26 00:02:47;;;;;;;2.28;0.60;;;;;;;;;;5059088;28;41547;-73
2023/12/26 00:05:15;;;;;;;0.85;0.30;;;;;;;;;;5066450;28;40859;-73
2023/12/26 00:07:45;;;;;;;1.02;0.40;;;;;;;;;;5064724;28;41212;-73
2023/12/26 00:10:15;;;;;;;0.52;0.30;;;;;;;;;;5066406;28;43134;-73
2023/12/26 00:12:43;;;;;;;0.35;0.30;;;;;;;;;;5057449;28;41440;-73
2023/12/26 00:15:11;;;;;;;0.75;0.20;;;;;;;;;;5077035;28;42015;-73
2023/12/26 00:17:39;;;;;;;2.17;0.40;;;;;;;;;;5068597;28;41080;-73
2023/12/26 00:20:08;;;;;;;0.47;0.20;;;;;;;;;;5066046;28;41673;-73
2023/12/26 00:22:36;;;;;;;0.22;0.20;;;;;;;;;;5066375;28;42138;-74
2023/12/26 00:25:07;;;;;;;0.10;0.10;;;;;;;;;;5067360;28;41134;-73
2023/12/26 00:27:37;;;;;;;0.22;0.20;;;;;;;;;;5065425;28;43502;-73
2023/12/26 00:30:05;;;;;;;1.02;0.20;;;;;;;;;;5076322;28;41899;-74
2023/12/26 00:32:34;;;;;;;0.50;0.30;;;;;;;;;;5054536;28;39813;-74
2023/12/26 00:35:02;;;;;;;2.15;0.35;;;;;;;;;;5083373;28;42611;-77
2023/12/26 00:37:31;;;;;;;1.38;0.35;;;;;;;;;;5071143;28;41979;-75
2023/12/26 00:40:00;;;;;;;3.28;0.22;;;;;;;;;;5069052;28;41408;-75
2023/12/26 00:42:33;;;;;;;3.72;0.30;;;;;;;;;;5058741;28;41732;-75
2023/12/26 00:45:01;;;;;;;1.30;0.30;;;;;;;;;;5053352;28;39819;-76
2023/12/26 00:47:29;;;;;;;1.95;0.20;;;;;;;;;;5077473;28;41764;-75
2023/12/26 00:49:59;;;;;;;0.20;0.10;;;;;;;;;;5066750;28;41772;-75
2023/12/26 00:52:30;;;;;;;1.58;0.10;;;;;;;;;;5059699;28;41350;-75
2023/12/26 00:54:58;;;;;;;0.65;0.15;;;;;;;;;;5065510;28;42852;-75
2023/12/26 00:57:27;;;;;;;0.10;0.10;;;;;;;;;;5049591;28;42365;-75
2023/12/26 00:59:56;;;;;;;0.98;0.20;;;;;;;;;;5045948;28;40110;-75
2023/12/26 01:02:25;;;;;;;2.05;0.25;;;;;;;;;;5066438;28;42738;-75
2023/12/26 01:04:53;;;;;;;0.68;0.20;;;;;;;;;;5066418;28;42343;-75
2023/12/26 01:07:21;;;;;;;4.13;0.40;;;;;;;;;;5067166;28;41691;-74
2023/12/26 01:09:49;;;;;;;1.02;0.17;;;;;;;;;;5054734;28;43009;-74
2023/12/26 01:12:18;;;;;;;0.30;0.10;;;;;;;;;;5049632;28;40193;-74
2023/12/26 01:14:46;;;;;;;1.17;0.40;;;;;;;;;;5059012;28;42173;-74
2023/12/26 01:17:15;;;;;;;2.83;0.63;;;;;;;;;;5053789;28;41321;-74
2023/12/26 01:19:43;;;;;;;0.90;0.20;;;;;;;;;;5076318;28;41077;-74
2023/12/26 01:22:12;;;;;;;0.45;0.20;;;;;;;;;;5055800;28;40141;-74
2023/12/26 01:24:40;;;;;;;0.22;0.20;;;;;;;;;;5053721;28;41340;-74
2023/12/26 01:27:08;;;;;;;0.75;0.20;;;;;;;;;;5068283;28;41606;-74
2023/12/26 01:29:36;;;;;;;0.20;0.20;;;;;;;;;;5068190;28;41694;-74
2023/12/26 01:32:04;;;;;;;0.65;0.20;;;;;;;;;;5056283;28;40922;-74
2023/12/26 01:34:34;;;;;;;2.95;0.45;;;;;;;;;;5068537;28;41829;-74
2023/12/26 01:37:02;;;;;;;2.63;0.40;;;;;;;;;;5046462;28;40594;-74
2023/12/26 01:39:31;;;;;;;0.28;0.20;;;;;;;;;;5038411;28;40882;-74
2023/12/26 01:41:59;;;;;;;0.20;0.20;;;;;;;;;;5067890;28;42633;-74
2023/12/26 01:44:27;;;;;;;0.50;0.20;;;;;;;;;;5048302;28;40182;-74
2023/12/26 01:46:55;;;;;;;0.57;0.20;;;;;;;;;;5034146;28;40002;-74
2023/12/26 01:49:23;;;;;;;0.68;0.30;;;;;;;;;;5068119;28;43172;-74
2023/12/26 01:51:53;;;;;;;1.83;0.28;;;;;;;;;;5048024;28;40329;-74
2023/12/26 01:54:21;;;;;;;0.70;0.20;;;;;;;;;;5067891;28;41770;-74
2023/12/26 01:56:50;;;;;;;0.73;0.20;;;;;;;;;;5069735;28;41765;-74
2023/12/26 01:59:18;;;;;;;0.22;0.20;;;;;;;;;;5087299;28;41938;-74
2023/12/26 02:01:46;;;;;;;0.60;0.20;;;;;;;;;;5054772;28;40083;-74
2023/12/26 02:04:14;;;;;;;0.40;0.20;;;;;;;;;;5080246;28;41585;-74
2023/12/26 02:06:42;;;;;;;0.60;0.30;;;;;;;;;;5062630;28;40418;-74
2023/12/26 02:09:12;;;;;;;0.52;0.20;;;;;;;;;;5036463;28;41836;-74
2023/12/26 02:11:40;;;;;;;0.22;0.10;;;;;;;;;;5067298;28;42254;-74
2023/12/26 02:14:09;;;;;;;0.43;0.20;;;;;;;;;;5048554;28;41721;-74
2023/12/26 02:16:39;;;;;;;1.40;0.38;;;;;;;;;;5059201;28;40896;-74
2023/12/26 02:19:07;;;;;;;0.10;0.10;;;;;;;;;;5072643;28;42055;-74
2023/12/26 02:21:35;;;;;;;1.38;0.28;;;;;;;;;;5078914;28;41759;-74
2023/12/26 02:24:05;;;;;;;0.43;0.20;;;;;;;;;;5062848;28;40572;-75
2023/12/26 02:26:34;;;;;;;0.75;0.25;;;;;;;;;;5074521;28;41670;-74
2023/12/26 02:29:02;;;;;;;1.65;0.47;;;;;;;;;;5055162;28;39835;-74
2023/12/26 02:31:30;;;;;;;0.68;0.20;;;;;;;;;;5081424;28;41089;-74
2023/12/26 02:33:58;;;;;;;0.57;0.22;;;;;;;;;;5078110;28;42275;-74
2023/12/26 02:36:27;;;;;;;1.25;0.20;;;;;;;;;;5064242;28;43228;-74
2023/12/26 02:38:55;;;;;;;0.82;0.20;;;;;;;;;;5058130;28;41049;-74
2023/12/26 02:41:24;;;;;;;0.82;0.40;;;;;;;;;;5065175;28;40142;-74
2023/12/26 02:43:52;;;;;;;0.75;0.20;;;;;;;;;;5063493;28;43058;-74
2023/12/26 02:46:20;;;;;;;0.85;0.30;;;;;;;;;;5066503;28;41048;-74
2023/12/26 02:48:48;;;;;;;1.42;0.28;;;;;;;;;;5052595;28;43017;-74
2023/12/26 02:51:16;;;;;;;0.80;0.28;;;;;;;;;;5062111;28;41815;-74
2023/12/26 02:53:45;;;;;;;1.48;0.40;;;;;;;;;;5047703;28;41841;-73
2023/12/26 02:56:13;;;;;;;0.40;0.20;;;;;;;;;;5065855;28;42013;-74
2023/12/26 02:58:42;;;;;;;0.45;0.20;;;;;;;;;;5066501;28;41198;-74
2023/12/26 03:01:10;;;;;;;0.38;0.30;;;;;;;;;;5066092;28;41714;-74
2023/12/26 03:03:38;;;;;;;0.55;0.30;;;;;;;;;;5048279;28;41854;-74
2023/12/26 03:06:07;;;;;;;1.48;0.50;;;;;;;;;;5043761;28;40221;-74
2023/12/26 03:08:36;;;;;;;0.68;0.30;;;;;;;;;;5060540;28;41891;-74
2023/12/26 03:11:04;;;;;;;0.70;0.28;;;;;;;;;;5065795;28;41418;-74
2023/12/26 03:13:32;;;;;;;2.40;0.40;;;;;;;;;;5056227;28;41757;-74
2023/12/26 03:16:01;;;;;;;0.57;0.30;;;;;;;;;;5050331;28;43158;-74
2023/12/26 03:18:29;;;;;;;2.00;0.47;;;;;;;;;;5050559;28;41191;-75
2023/12/26 03:20:58;;;;;;;0.40;0.20;;;;;;;;;;5035715;28;40496;-74
2023/12/26 03:23:26;;;;;;;1.08;0.38;;;;;;;;;;5038304;28;39477;-74
2023/12/26 03:25:55;;;;;;;1.05;0.30;;;;;;;;;;5065651;28;42473;-74
2023/12/26 03:28:23;;;;;;;2.08;0.50;;;;;;;;;;5051162;28;42678;-73
2023/12/26 03:30:51;;;;;;;1.27;0.40;;;;;;;;;;5059403;28;40965;-74
2023/12/26 03:33:20;;;;;;;2.95;0.65;;;;;;;;;;5065994;28;41685;-74
2023/12/26 03:35:49;;;;;;;2.95;0.75;;;;;;;;;;5066139;28;41789;-74
2023/12/26 03:38:17;;;;;;;4.90;0.85;;;;;;;;;;5049105;28;39770;-74
2023/12/26 03:40:45;;;;;;;3.13;0.40;;;;;;;;;;5048090;28;40189;-74
2023/12/26 03:43:13;;;;;;;6.88;1.02;;;;;;;;;;5055176;28;42635;-74
2023/12/26 03:45:42;;;;;;;4.25;0.55;;;;;;;;;;5046975;28;40232;-74
2023/12/26 03:48:10;;;;;;;3.80;0.68;;;;;;;;;;5050120;28;41502;-74
2023/12/26 03:50:39;;;;;;;2.25;0.45;;;;;;;;;;5065412;28;42120;-74
2023/12/26 03:53:08;;;;;;;2.63;0.95;;;;;;;;;;5047102;28;39792;-74
2023/12/26 03:55:36;;;;;;;2.80;0.50;;;;;;;;;;5051515;28;40501;-74
2023/12/26 03:58:04;;;;;;;0.50;0.30;;;;;;;;;;5067587;28;42147;-74
2023/12/26 04:00:32;;;;;;;1.73;0.57;;;;;;;;;;5066484;28;41732;-74
2023/12/26 04:03:00;;;;;;;2.40;0.50;;;;;;;;;;5051150;28;40520;-74
2023/12/26 04:05:29;;;;;;;2.05;0.40;;;;;;;;;;5051093;28;39860;-74
2023/12/26 04:07:58;;;;;;;3.35;0.80;;;;;;;;;;5049365;28;40298;-74
2023/12/26 04:10:27;;;;;;;0.60;0.30;;;;;;;;;;5050817;28;42579;-74
2023/12/26 04:12:56;;;;;;;3.92;0.93;;;;;;;;;;5068415;28;42407;-74
2023/12/26 04:15:25;;;;;;;1.45;0.70;;;;;;;;;;5071365;28;40877;-74
2023/12/26 04:17:53;;;;;;;0.73;0.20;;;;;;;;;;5048355;28;39977;-74
2023/12/26 04:20:22;;;;;;;1.63;0.32;;;;;;;;;;5045446;28;40573;-74
2023/12/26 04:22:50;;;;;;;0.82;0.40;;;;;;;;;;5039064;28;40930;-74
2023/12/26 04:25:20;;;;;;;2.42;0.70;;;;;;;;;;5051812;28;42319;-74
2023/12/26 04:27:48;;;;;;;2.17;0.60;;;;;;;;;;5068740;28;42705;-74
2023/12/26 04:30:17;;;;;;;2.90;0.57;;;;;;;;;;5068009;28;40529;-74
2023/12/26 04:32:45;;;;;;;3.85;0.90;;;;;;;;;;5042440;28;41219;-74
2023/12/26 04:35:15;;;;;;;2.10;0.70;;;;;;;;;;5044431;28;40220;-74
2023/12/26 04:37:43;;;;;;;5.13;0.80;;;;;;;;;;5037116;28;39790;-74
2023/12/26 04:40:11;;;;;;;1.77;0.63;;;;;;;;;;5037157;28;40388;-74
2023/12/26 04:42:41;;;;;;;2.05;0.63;;;;;;;;;;5049675;28;41466;-74
2023/12/26 04:45:10;;;;;;;2.65;0.60;;;;;;;;;;5050733;28;39827;-74
2023/12/26 04:47:39;;;;;;;2.28;0.70;;;;;;;;;;5038473;28;41783;-74
2023/12/26 04:50:07;;;;;;;3.97;0.63;;;;;;;;;;5043951;28;41216;-74
2023/12/26 04:52:35;;;;;;;1.40;0.70;;;;;;;;;;5055411;28;40775;-74
2023/12/26 04:55:03;;;;;;;4.45;0.82;;;;;;;;;;5049589;28;40447;-74
2023/12/26 04:57:32;;;;;;;1.83;0.50;;;;;;;;;;5050763;28;41049;-74
2023/12/26 05:00:02;;;;;;;2.80;0.65;;;;;;;;;;5050056;28;40350;-74
2023/12/26 05:02:31;;;;;;;1.67;0.73;;;;;;;;;;5049838;28;41497;-74
2023/12/26 05:04:59;;;;;;;0.93;0.50;;;;;;;;;;5061816;28;41382;-74
2023/12/26 05:07:27;;;;;;;0.80;0.30;;;;;;;;;;5055164;28;40941;-74
2023/12/26 05:09:55;;;;;;;1.40;0.30;;;;;;;;;;5041277;28;41573;-74
2023/12/26 05:12:24;;;;;;;2.05;0.50;;;;;;;;;;5049824;28;39897;-74
2023/12/26 05:14:52;;;;;;;1.45;0.80;;;;;;;;;;5049827;28;40700;-74
2023/12/26 05:17:21;;;;;;;0.70;0.40;;;;;;;;;;5067120;28;43182;-74
2023/12/26 05:19:49;;;;;;;4.38;1.00;;;;;;;;;;5051955;28;39873;-74
2023/12/26 05:22:18;;;;;;;2.78;0.60;;;;;;;;;;5060726;28;42856;-74
2023/12/26 05:24:46;;;;;;;2.40;0.63;;;;;;;;;;5052257;28;39858;-74
2023/12/26 05:27:21;;;;;;;3.20;0.80;;;;;;;;;;5042338;28;41166;-74
2023/12/26 05:29:49;;;;;;;1.65;0.55;;;;;;;;;;5063817;28;42895;-74
2023/12/26 05:32:17;;;;;;;4.82;1.00;;;;;;;;;;5066388;28;41857;-74
2023/12/26 05:34:48;;;;;;;3.80;0.88;;;;;;;;;;5048341;28;40205;-74
2023/12/26 05:37:16;;;;;;;3.65;0.70;;;;;;;;;;5044786;28;41332;-74
2023/12/26 05:39:45;;;;;;;2.55;0.70;;;;;;;;;;5045823;28;41419;-74
2023/12/26 05:42:14;;;;;;;1.65;0.55;;;;;;;;;;5046233;28;40349;-74
2023/12/26 05:44:42;;;;;;;3.85;0.70;;;;;;;;;;5048436;28;40018;-74
2023/12/26 05:47:10;;;;;;;6.55;1.08;;;;;;;;;;5054203;28;41434;-74
2023/12/26 05:49:38;;;;;;;2.63;0.65;;;;;;;;;;5060077;28;40615;-74
2023/12/26 05:52:09;;;;;;;1.77;0.75;;;;;;;;;;5049350;28;40267;-74
2023/12/26 05:54:37;;;;;;;3.42;1.17;;;;;;;;;;5079715;28;41342;-74
2023/12/26 05:57:05;;;;;;;3.88;1.20;;;;;;;;;;5068046;28;43178;-74
2023/12/26 05:59:35;;;;;;;5.35;1.08;;;;;;;;;;5049508;28;39512;-74
2023/12/26 06:02:03;;;;;;;6.95;1.33;;;;;;;;;;5039899;28;43048;-74
2023/12/26 06:04:31;;;;;;;9.15;1.20;;;;;;;;;;5048047;28;41623;-74
2023/12/26 06:06:59;;;;;;;5.05;0.70;;;;;;;;;;5069645;28;42350;-74
2023/12/26 06:09:30;;;;;;;7.57;1.35;;;;;;;;;;5030554;28;41703;-74
2023/12/26 06:11:58;;;;;;;3.95;0.73;;;;;;;;;;5041169;28;39882;-74
2023/12/26 06:14:26;;;;;;;1.88;0.68;;;;;;;;;;5061439;28;42414;-74
2023/12/26 06:16:54;;;;;;;2.65;0.60;;;;;;;;;;5048095;28;41542;-74
2023/12/26 06:19:22;;;;;;;1.70;0.47;;;;;;;;;;5065400;28;41560;-74
2023/12/26 06:21:51;;;;;;;1.75;0.50;;;;;;;;;;5071560;28;42493;-74
2023/12/26 06:24:19;;;;;;;6.90;1.30;;;;;;;;;;5057402;28;40100;-74
2023/12/26 06:26:49;;;;;;;5.72;0.80;;;;;;;;;;5047030;28;41084;-74
2023/12/26 06:29:17;;;;;;;5.32;0.90;;;;;;;;;;5056888;28;43349;-74
2023/12/26 06:31:45;;;;;;;4.88;1.08;;;;;;;;;;5064385;28;41098;-74
2023/12/26 06:34:13;;;;;;;5.32;1.27;;;;;;;;;;5067547;28;41740;-73
2023/12/26 06:36:41;;;;;;;2.30;0.80;;;;;;;;;;5035017;28;41523;-74
2023/12/26 06:39:11;;;;;;;4.13;0.90;;;;;;;;;;5058645;28;41500;-74
2023/12/26 06:41:41;;;;;;;3.63;0.93;;;;;;;;;;5046327;28;41542;-74
2023/12/26 06:44:12;;;;;;;5.00;1.33;;;;;;;;;;5055652;28;42118;-75
2023/12/26 06:46:40;;;;;;;5.00;0.90;;;;;;;;;;5049214;28;39754;-74
2023/12/26 06:49:08;;;;;;;6.25;0.93;;;;;;;;;;5079134;28;41951;-74
2023/12/26 06:51:39;;;;;;;6.85;1.35;;;;;;;;;;5062205;28;40815;-74
2023/12/26 06:54:09;;;;;;;2.35;0.85;;;;;;;;;;5048718;28;41184;-74
2023/12/26 06:56:37;;;;;;;4.65;1.10;;;;;;;;;;5049316;28;40584;-74
2023/12/26 06:59:05;;;;;;;4.55;1.13;;;;;;;;;;5048223;28;40225;-74
2023/12/26 07:01:35;;;;;;;7.63;1.35;;;;;;;;;;5034722;28;40358;-74
2023/12/26 07:04:03;;;;;;;5.70;1.05;;;;;;;;;;5046963;28;40408;-74
2023/12/26 07:06:31;;;;;;;7.75;1.58;;;;;;;;;;5067358;28;42257;-74
2023/12/26 07:08:59;;;;;;;3.45;0.70;;;;;;;;;;5058490;28;42329;-74
2023/12/26 07:11:28;;;;;;;7.22;0.98;;;;;;;;;;5065895;28;42268;-74
2023/12/26 07:13:56;;;;;;;3.60;1.02;;;;;;;;;;5059632;28;41148;-74
2023/12/26 07:16:24;;;;;;;3.63;0.65;;;;;;;;;;5064752;28;43125;-74
2023/12/26 07:18:54;;;;;;;4.40;0.80;;;;;;;;;;5066418;28;42320;-73
2023/12/26 07:21:22;;;;;;;6.03;1.38;;;;;;;;;;5058350;28;42715;-74
2023/12/26 07:23:50;;;;;;;5.57;1.02;;;;;;;;;;5058431;28;42366;-74
2023/12/26 07:26:18;;;;;;;5.50;1.17;;;;;;;;;;5059217;28;42340;-74
2023/12/26 07:28:46;;;;;;;5.88;1.23;;;;;;;;;;5061868;28;42078;-74
2023/12/26 07:31:18;;;;;;;4.05;0.85;;;;;;;;;;5064632;28;42119;-74
2023/12/26 07:33:46;;;;;;;3.08;0.80;;;;;;;;;;5064451;28;41626;-74
2023/12/26 07:36:16;;;;;;;2.38;0.88;;;;;;;;;;5067630;28;42015;-74
2023/12/26 07:38:44;;;;;;;4.05;0.90;;;;;;;;;;5064834;28;40939;-74
2023/12/26 07:41:12;;;;;;;4.25;1.27;;;;;;;;;;5067794;28;41291;-74
2023/12/26 07:43:40;;;;;;;2.38;0.50;;;;;;;;;;5068136;28;42158;-74
2023/12/26 07:46:08;;;;;;;4.35;0.80;;;;;;;;;;5068889;28;41113;-74
2023/12/26 07:48:37;;;;;;;2.85;0.60;;;;;;;;;;5060352;28;41176;-74
2023/12/26 07:51:05;;;;;;;2.90;0.82;;;;;;;;;;5068857;28;42083;-74
2023/12/26 07:53:34;;;;;;;2.92;0.70;;;;;;;;;;5067633;28;42311;-74
2023/12/26 07:56:03;;;;;;;1.95;0.80;;;;;;;;;;5068016;28;42195;-74
2023/12/26 07:58:31;;;;;;;6.82;1.50;;;;;;;;;;5068770;28;41531;-74
2023/12/26 08:00:58;;;;;;;3.17;0.90;;;;;;;;;;5071420;28;41761;-74
2023/12/26 08:03:26;;;;;;;3.90;0.90;;;;;;;;;;5081899;28;42005;-74
2023/12/26 08:05:54;;;;;;;2.75;0.70;;;;;;;;;;5069370;28;42054;-74
2023/12/26 08:08:22;;;;;;;5.38;1.05;;;;;;;;;;5051050;28;42361;-74
2023/12/26 08:10:52;;;;;;;6.47;1.20;;;;;;;;;;5069261;28;41587;-74
2023/12/26 08:13:20;;;;;;;3.42;0.98;;;;;;;;;;5083235;28;41238;-74
2023/12/26 08:15:48;;;;;;;3.67;0.63;;;;;;;;;;5069453;28;41341;-74
2023/12/26 08:18:16;;;;;;;4.97;1.27;;;;;;;;;;5067531;28;41167;-74
2023/12/26 08:20:44;;;;;;;5.72;0.88;;;;;;;;;;5069124;28;42204;-74
2023/12/26 08:23:13;;;;;;;8.45;1.48;;;;;;;;;;5070536;28;42166;-74
2023/12/26 08:25:42;;;;;;;2.72;0.80;;;;;;;;;;5080113;28;42874;-74
2023/12/26 08:28:12;;;;;;;7.82;1.52;;;;;;;;;;5082769;28;41752;-73
2023/12/26 08:30:40;;;;;;;6.30;1.42;;;;;;;;;;5068918;28;41684;-72
2023/12/26 08:33:08;;;;;;;4.68;1.00;;;;;;;;;;5082017;28;41439;-72
2023/12/26 08:35:37;;;;;;;5.60;1.55;;;;;;;;;;5062200;28;42600;-72
2023/12/26 08:38:05;;;;;;;7.40;1.33;;;;;;;;;;5065745;28;34339;-72
2023/12/26 08:40:33;;;;;;;3.20;1.20;;;;;;;;;;5068331;28;41576;-73
2023/12/26 08:43:01;;;;;;;4.63;1.40;;;;;;;;;;5066667;28;43082;-75
2023/12/26 08:45:32;;;;;;;4.70;1.23;;;;;;;;;;5068781;28;40939;-74
2023/12/26 08:48:00;;;;;;;9.73;1.80;;;;;;;;;;5053383;28;41256;-74
2023/12/26 08:50:28;;;;;;;3.20;1.17;;;;;;;;;;5067216;28;43056;-73
2023/12/26 08:52:56;;;;;;;4.93;1.10;;;;;;;;;;5068171;28;41400;-73
2023/12/26 08:55:25;;;;;;;7.57;1.73;;;;;;;;;;5048366;28;41488;-74
2023/12/26 08:57:53;;;;;;;5.75;1.30;;;;;;;;;;5066698;28;42049;-74
2023/12/26 09:00:21;;;;;;;6.75;1.52;;;;;;;;;;5065875;28;42738;-73
2023/12/26 09:02:51;;;;;;;7.93;1.83;;;;;;;;;;5054745;28;42268;-77
2023/12/26 09:05:33;;;;;;;4.32;1.05;;;;;;;;;;5059162;28;41446;-75
2023/12/26 09:08:01;;;;;;;5.43;1.67;;;;;;;;;;5048745;28;39778;-75
2023/12/26 09:10:29;;;;;;;4.93;1.20;;;;;;;;;;5061976;28;40209;-75
2023/12/26 09:12:57;;;;;;;6.63;1.20;;;;;;;;;;5062917;28;41060;-75
2023/12/26 09:15:26;;;;;;;3.65;1.08;;;;;;;;;;5048245;28;41670;-74
2023/12/26 09:17:55;;;;;;;4.97;1.20;;;;;;;;;;5067150;28;43276;-75
2023/12/26 09:20:23;;;;;;;6.43;1.30;;;;;;;;;;5053420;28;41367;-75
2023/12/26 09:22:52;;;;;;;6.93;1.25;;;;;;;;;;5052649;28;41961;-76
2023/12/26 09:25:20;;;;;;;3.95;1.25;;;;;;;;;;5062783;28;41319;-75
2023/12/26 09:27:48;;;;;;;5.32;1.25;;;;;;;;;;5055491;28;42405;-74
2023/12/26 09:30:17;;;;;;;7.43;1.10;;;;;;;;;;5067298;28;43129;-74
2023/12/26 09:32:46;;;;;;;4.53;1.10;;;;;;;;;;5056073;28;40746;-74
2023/12/26 09:35:16;;;;;;;6.38;1.30;;;;;;;;;;5064224;28;42499;-73
2023/12/26 09:37:44;;;;;;;3.63;1.10;;;;;;;;;;5062077;28;43211;-75
2023/12/26 09:40:12;;;;;;;5.28;1.30;;;;;;;;;;5065539;28;42074;-74
2023/12/26 09:42:40;;;;;;;8.40;1.50;;;;;;;;;;5065452;28;42598;-73
2023/12/26 09:45:11;;;;;;;4.28;1.02;;;;;;;;;;5065740;28;42376;-72
2023/12/26 09:47:39;;;;;;;5.05;1.10;;;;;;;;;;5054977;28;42080;-71
2023/12/26 09:50:07;;;;;;;4.70;1.08;;;;;;;;;;5062163;28;42230;-73
2023/12/26 09:52:38;;;;;;;7.18;1.35;;;;;;;;;;5055005;28;41361;-72
2023/12/26 09:55:06;;;;;;;5.00;1.40;;;;;;;;;;5063254;28;41875;-72
2023/12/26 09:57:34;;;;;;;9.63;1.35;;;;;;;;;;5064886;28;42615;-72
2023/12/26 10:00:03;;;;;;;11.10;1.95;;;;;;;;;;5066745;28;41324;-72
2023/12/26 10:02:38;;;;;;;14.10;1.70;;;;;;;;;;5068064;28;42960;-72
2023/12/26 10:05:07;;;;;;;6.93;1.63;;;;;;;;;;5066866;28;42200;-73
2023/12/26 10:07:37;;;;;;;3.92;0.93;;;;;;;;;;5048912;28;39808;-72
2023/12/26 10:10:05;;;;;;;5.88;1.15;;;;;;;;;;5060251;28;42977;-72
2023/12/26 10:12:34;;;;;;;4.75;1.45;;;;;;;;;;5066648;28;40548;-72
2023/12/26 10:15:02;;;;;;;4.45;0.88;;;;;;;;;;5053221;28;40547;-72
2023/12/26 10:17:31;;;;;;;5.40;1.33;;;;;;;;;;5074966;28;42129;-73
2023/12/26 10:19:59;;;;;;;5.32;1.17;;;;;;;;;;5071349;28;41631;-72
2023/12/26 10:22:27;;;;;;;6.97;1.75;;;;;;;;;;5068311;28;41829;-72
2023/12/26 10:25:00;;;;;;;7.25;1.83;;;;;;;;;;5063820;28;42700;-72
2023/12/26 10:27:28;;;;;;;4.00;1.40;;;;;;;;;;5075771;28;41300;-72
2023/12/26 10:29:56;;;;;;;3.35;1.05;;;;;;;;;;5072238;28;43153;-72
2023/12/26 10:32:25;;;;;;;9.73;1.83;;;;;;;;;;5075755;28;41612;-72
2023/12/26 10:34:53;;;;;;;6.18;1.40;;;;;;;;;;5073938;28;41612;-72
2023/12/26 10:37:22;;;;;;;7.80;1.40;;;;;;;;;;5081325;28;42163;-72
2023/12/26 10:39:50;;;;;;;7.50;1.52;;;;;;;;;;5061182;28;41074;-72
2023/12/26 10:42:19;;;;;;;5.60;1.40;;;;;;;;;;5067941;28;42322;-72
2023/12/26 10:44:50;;;;;;;4.85;1.60;;;;;;;;;;5067832;28;42020;-73
2023/12/26 10:47:20;;;;;;;8.38;1.65;;;;;;;;;;5042372;28;39645;-73
2023/12/26 10:49:48;;;;;;;6.82;1.45;;;;;;;;;;5061639;28;42109;-73
2023/12/26 10:52:17;;;;;;;7.50;1.42;;;;;;;;;;5067974;28;42210;-72
2023/12/26 10:54:45;;;;;;;8.43;1.95;;;;;;;;;;5080243;28;42456;-72
2023/12/26 10:57:13;;;;;;;10.15;2.00;;;;;;;;;;5073684;28;41629;-72
2023/12/26 13:52:32;;;;;;;5.22;1.50;;;;;;;;;;5054658;28;42778;-74
2023/12/26 13:55:00;;;;;;;7.45;1.60;;;;;;;;;;5067056;28;41929;-75
2023/12/26 13:57:27;;;;;;;7.78;1.63;;;;;;;;;;5059928;28;43317;-74
2023/12/26 13:59:55;;;;;;;5.07;1.52;;;;;;;;;;5036636;28;40061;-75
2023/12/26 14:02:42;;;;;;;8.43;1.30;;;;;;;;;;5059292;28;42275;-78
2023/12/26 14:05:29;;;;;;;7.43;1.58;;;;;;;;;;5065011;28;42128;-77
2023/12/26 14:07:58;;;;;;;6.20;1.45;;;;;;;;;;5065287;28;40916;-78
2023/12/26 14:10:46;;;;;;;5.93;1.17;;;;;;;;;;5061728;28;42287;-75
2023/12/26 14:13:33;;;;;;;5.85;1.67;;;;;;;;;;5055587;28;39422;-75
2023/12/26 14:16:21;;;;;;;4.90;1.45;;;;;;;;;;5058650;28;41337;-76
2023/12/26 14:19:08;;;;;;;5.13;1.20;;;;;;;;;;5053735;28;42120;-74
2023/12/26 14:21:54;;;;;;;10.13;1.27;;;;;;;;;;5057658;28;42144;-71
2023/12/26 14:24:41;;;;;;;7.20;1.65;;;;;;;;;;5059486;28;42690;-71
2023/12/26 14:27:28;;;;;;;7.15;1.42;;;;;;;;;;5065241;28;41639;-72
2023/12/26 14:30:14;;;;;;;6.50;1.35;;;;;;;;;;5050956;28;41420;-72
2023/12/26 14:32:44;;;;;;;7.22;1.42;;;;;;;;;;5053307;28;42575;-72
2023/12/26 14:35:12;;;;;;;6.35;1.30;;;;;;;;;;5063805;28;42290;-72
2023/12/26 14:37:59;;;;;;;6.95;1.20;;;;;;;;;;5056576;28;41746;-72
2023/12/26 14:40:46;;;;;;;4.15;1.05;;;;;;;;;;5052891;28;42215;-73
2023/12/26 14:43:16;;;;;;;5.38;1.40;;;;;;;;;;5060816;28;41323;-72
2023/12/26 14:45:44;;;;;;;4.20;1.23;;;;;;;;;;5065838;28;41728;-73
2023/12/26 14:48:31;;;;;;;7.38;1.27;;;;;;;;;;5054249;28;43084;-72
2023/12/26 14:51:18;;;;;;;6.07;1.40;;;;;;;;;;5056254;28;40695;-72
2023/12/26 14:53:49;;;;;;;4.57;1.15;;;;;;;;;;5059681;28;41329;-73
2023/12/26 14:56:17;;;;;;;5.40;1.50;;;;;;;;;;5063221;28;42453;-75
2023/12/26 14:58:45;;;;;;;5.97;1.63;;;;;;;;;;5055577;28;41505;-75
2023/12/26 15:01:13;;;;;;;10.32;1.58;;;;;;;;;;5064038;28;43117;-77
2023/12/26 15:03:48;;;;;;;11.40;1.10;;;;;;;;;;5066015;28;42038;-77
2023/12/26 15:06:18;;;;;;;6.97;1.38;;;;;;;;;;5050819;28;41042;-76
2023/12/26 15:08:46;;;;;;;4.13;1.10;;;;;;;;;;5066453;28;41719;-74
2023/12/26 15:11:16;;;;;;;6.05;1.52;;;;;;;;;;5066370;28;42064;-76
2023/12/26 15:13:44;;;;;;;4.13;1.23;;;;;;;;;;5066146;28;42354;-77
2023/12/26 15:16:27;;;;;;;5.05;1.10;;;;;;;;;;5059456;28;42801;-77
2023/12/26 15:18:56;;;;;;;4.22;1.13;;;;;;;;;;5067001;28;41583;-78
2023/12/26 15:21:24;;;;;;;3.67;1.23;;;;;;;;;;5058199;28;43172;-79
2023/12/26 15:23:52;;;;;;;5.40;1.48;;;;;;;;;;5056756;28;42833;-79
2023/12/26 15:26:22;;;;;;;7.93;1.13;;;;;;;;;;5066779;28;41361;-79
2023/12/26 15:28:50;;;;;;;3.05;1.15;;;;;;;;;;5065670;28;41218;-79
2023/12/26 15:31:19;;;;;;;6.78;1.75;;;;;;;;;;5055903;28;40882;-77
2023/12/26 15:33:48;;;;;;;4.97;1.52;;;;;;;;;;5066183;28;41324;-77
2023/12/26 15:36:17;;;;;;;3.08;0.85;;;;;;;;;;5066560;28;42425;-77
2023/12/26 15:38:45;;;;;;;3.10;1.00;;;;;;;;;;5055760;28;42514;-77
2023/12/26 15:41:14;;;;;;;5.05;1.10;;;;;;;;;;5061024;28;41264;-77
2023/12/26 15:43:43;;;;;;;8.63;1.30;;;;;;;;;;5066647;28;40944;-77
2023/12/26 15:46:15;;;;;;;3.92;1.20;;;;;;;;;;5066744;28;42555;-77
2023/12/26 15:48:43;;;;;;;4.30;1.20;;;;;;;;;;5062945;28;42167;-76
2023/12/26 15:51:13;;;;;;;6.40;1.50;;;;;;;;;;5064796;28;41152;-77
2023/12/26 15:53:41;;;;;;;3.10;0.95;;;;;;;;;;5065081;28;43635;-76
2023/12/26 15:56:09;;;;;;;2.88;0.90;;;;;;;;;;5069519;28;41703;-76
2023/12/26 15:58:40;;;;;;;4.90;1.05;;;;;;;;;;5069470;28;41207;-76
2023/12/26 16:01:10;;;;;;;4.20;1.05;;;;;;;;;;5051565;28;40917;-77
2023/12/26 16:03:38;;;;;;;4.43;1.45;;;;;;;;;;5069651;28;41100;-77
2023/12/26 16:06:07;;;;;;;4.72;1.30;;;;;;;;;;5067460;28;42719;-77
2023/12/26 16:08:36;;;;;;;3.88;1.02;;;;;;;;;;5072713;28;41804;-76
2023/12/26 16:11:05;;;;;;;4.07;1.05;;;;;;;;;;5059948;28;41009;-80
2023/12/26 16:13:33;;;;;;;4.32;1.27;;;;;;;;;;5069303;28;41712;-78
2023/12/26 16:16:01;;;;;;;4.78;1.60;;;;;;;;;;5068634;28;42100;-77
2023/12/26 16:18:30;;;;;;;4.00;1.42;;;;;;;;;;5063515;28;41661;-79
2023/12/26 16:20:59;;;;;;;5.57;1.20;;;;;;;;;;5061369;28;42468;-78
2023/12/26 16:23:27;;;;;;;3.22;1.00;;;;;;;;;;5058863;28;42260;-78
2023/12/26 16:25:55;;;;;;;2.30;0.75;;;;;;;;;;5067802;28;41657;-76
2023/12/26 16:28:23;;;;;;;5.22;1.30;;;;;;;;;;5062625;28;41798;-77
2023/12/26 16:30:51;;;;;;;6.47;0.95;;;;;;;;;;5057625;28;41367;-75
2023/12/26 16:33:19;;;;;;;6.15;1.35;;;;;;;;;;5058323;28;41858;-77
2023/12/26 16:35:49;;;;;;;4.65;0.90;;;;;;;;;;5052946;28;42806;-76
2023/12/26 16:38:17;;;;;;;1.77;0.60;;;;;;;;;;5048003;28;41578;-79
2023/12/26 16:40:45;;;;;;;3.92;0.82;;;;;;;;;;5069745;28;40997;-78
2023/12/26 16:43:13;;;;;;;5.43;0.50;;;;;;;;;;5071854;28;42896;-82
2023/12/26 16:45:41;;;;;;;2.10;0.80;;;;;;;;;;5075068;28;41675;-80
2023/12/26 16:48:10;;;;;;;4.10;1.27;;;;;;;;;;5038317;28;40802;-79
2023/12/26 16:50:38;;;;;;;9.57;1.00;;;;;;;;;;5050284;28;40072;-81
2023/12/26 16:53:08;;;;;;;2.13;0.88;;;;;;;;;;5080661;28;41471;-78
2023/12/26 16:55:36;;;;;;;3.80;1.35;;;;;;;;;;5068230;28;43191;-76
2023/12/26 16:58:04;;;;;;;9.82;4.35;;;;;;;;;;5067497;28;41560;-77
2023/12/26 17:00:32;;;;;;;3.08;0.95;;;;;;;;;;5068758;28;40993;-78
2023/12/26 17:03:05;;;;;;;3.13;1.20;;;;;;;;;;5047519;28;43156;-74
2023/12/26 17:05:33;;;;;;;4.50;1.73;;;;;;;;;;5066926;28;40976;-73
2023/12/26 17:08:01;;;;;;;5.38;2.45;;;;;;;;;;5067965;28;42419;-77
2023/12/26 17:10:31;;;;;;;3.33;1.35;;;;;;;;;;5049868;28;41003;-76
2023/12/26 17:12:59;;;;;;;5.90;2.55;;;;;;;;;;5066964;28;41862;-76
2023/12/26 17:15:27;;;;;;;4.15;1.70;;;;;;;;;;5068100;28;43299;-76
2023/12/26 17:17:55;;;;;;;2.22;0.85;;;;;;;;;;5067823;28;42008;-79
2023/12/26 17:20:23;;;;;;;3.47;1.20;;;;;;;;;;5063090;28;42024;-80
2023/12/26 17:22:51;;;;;;;3.20;1.10;;;;;;;;;;5068574;28;43147;-80
2023/12/26 17:25:19;;;;;;;4.25;0.93;;;;;;;;;;5073874;28;41309;-77
2023/12/26 17:27:49;;;;;;;2.65;1.00;;;;;;;;;;5063451;28;42663;-78
2023/12/26 17:30:19;;;;;;;4.70;0.90;;;;;;;;;;5062502;28;41700;-79
2023/12/26 17:32:47;;;;;;;4.20;1.02;;;;;;;;;;5063905;28;41517;-79
2023/12/26 17:35:16;;;;;;;5.97;1.40;;;;;;;;;;5065602;28;42094;-73
2023/12/26 17:37:44;;;;;;;3.22;1.00;;;;;;;;;;5066401;28;40907;-73
2023/12/26 17:40:12;;;;;;;6.15;2.65;;;;;;;;;;5057291;28;41494;-73
2023/12/26 17:42:40;;;;;;;6.50;2.20;;;;;;;;;;5058749;28;42393;-73
2023/12/26 17:45:11;;;;;;;15.05;5.80;;;;;;;;;;5067752;28;41171;-73
2023/12/26 17:47:39;;;;;;;31.40;8.77;;;;;;;;;;5064334;28;42346;-70